createdAt,value
2022-09-28T00:00:01.924Z,93.83
2022-09-28T00:01:02.095Z,94.65
2022-09-28T00:02:02.852Z,94.81
2022-09-28T00:03:04.004Z,94.30
2022-09-28T00:04:03.154Z,94.10
2022-09-28T00:05:03.321Z,93.95
2022-09-28T00:06:02.089Z,93.85
2022-09-28T00:07:04.299Z,94.15
2022-09-28T00:08:03.638Z,94.36
2022-09-28T00:09:04.889Z,94.26
2022-09-28T00:10:03.255Z,93.90
2022-09-28T00:11:03.556Z,93.90
2022-09-28T00:12:05.748Z,93.90
2022-09-28T00:13:06.913Z,94.11
2022-09-28T00:14:04.424Z,94.01
2022-09-28T00:15:06.636Z,93.70
2022-09-28T00:16:06.892Z,93.55
2022-09-28T00:17:07.045Z,92.98
2022-09-28T00:18:08.265Z,92.94
2022-09-28T00:19:05.782Z,92.53
2022-09-28T00:20:07.964Z,92.32
2022-09-28T00:21:08.129Z,92.02
2022-09-28T00:22:08.318Z,91.44
2022-09-28T00:23:09.492Z,91.08
2022-09-28T00:24:07.256Z,90.50
2022-09-28T00:25:09.449Z,90.24
2022-09-28T00:26:09.636Z,91.10
2022-09-28T00:27:09.839Z,91.00
2022-09-28T00:28:10.992Z,91.00
2022-09-28T00:29:08.754Z,90.80
2022-09-28T00:30:10.938Z,90.80
2022-09-28T00:31:09.379Z,90.48
2022-09-28T00:32:09.546Z,90.69
2022-09-28T00:33:12.770Z,91.20
2022-09-28T00:34:11.992Z,92.44
2022-09-28T00:35:10.489Z,92.85
2022-09-28T00:36:10.794Z,93.77
2022-09-28T00:37:12.559Z,93.73
2022-09-28T00:38:12.448Z,94.14
2022-09-28T00:39:13.672Z,94.24
2022-09-28T00:40:11.969Z,94.30
2022-09-28T00:41:13.223Z,93.79
2022-09-28T00:42:14.458Z,93.79
2022-09-28T00:43:13.820Z,93.74
2022-09-28T00:44:15.239Z,93.54
2022-09-28T00:45:13.511Z,93.33
2022-09-28T00:46:13.868Z,93.13
2022-09-28T00:47:16.030Z,92.41
2022-09-28T00:48:15.372Z,92.61
2022-09-28T00:49:14.869Z,92.51
2022-09-28T00:50:16.917Z,93.17
2022-09-28T00:51:16.265Z,94.40
2022-09-28T00:52:16.481Z,94.05
2022-09-28T00:53:19.413Z,93.33
2022-09-28T00:54:16.291Z,93.33
2022-09-28T00:55:16.481Z,93.13
2022-09-28T00:56:17.632Z,92.82
2022-09-28T00:57:18.054Z,93.44
2022-09-28T00:58:20.293Z,92.86
2022-09-28T00:59:17.765Z,93.68
2022-09-28T01:00:19.386Z,94.40
2022-09-28T01:01:18.356Z,94.20
2022-09-28T01:02:18.595Z,93.99
2022-09-28T01:03:19.785Z,94.10
2022-09-28T01:04:19.016Z,93.38
2022-09-28T01:05:21.202Z,93.89
2022-09-28T01:06:21.386Z,93.48
2022-09-28T01:07:19.890Z,94.10
2022-09-28T01:08:21.093Z,94.40
2022-09-28T01:09:20.454Z,94.20
2022-09-28T01:10:22.640Z,94.92
2022-09-28T01:11:21.043Z,94.61
2022-09-28T01:12:23.304Z,94.87
2022-09-28T01:13:22.659Z,94.87
2022-09-28T01:14:21.912Z,93.85
2022-09-28T01:15:24.081Z,93.44
2022-09-28T01:16:22.500Z,93.74
2022-09-28T01:17:22.818Z,93.95
2022-09-28T01:18:25.876Z,93.44
2022-09-28T01:19:23.270Z,94.36
2022-09-28T01:20:25.476Z,94.67
2022-09-28T01:21:24.864Z,94.46
2022-09-28T01:22:26.059Z,94.46
2022-09-28T01:23:25.948Z,94.05
2022-09-28T01:24:26.694Z,94.36
2022-09-28T01:25:26.882Z,94.56
2022-09-28T01:26:27.073Z,95.07
2022-09-28T01:27:27.261Z,95.34
2022-09-28T01:28:28.434Z,94.93
2022-09-28T01:29:26.185Z,95.07
2022-09-28T01:30:28.353Z,95.24
2022-09-28T01:31:26.765Z,95.28
2022-09-28T01:32:28.925Z,95.39
2022-09-28T01:33:28.159Z,95.69
2022-09-28T01:34:27.662Z,96.00
2022-09-28T01:35:29.931Z,96.10
2022-09-28T01:36:28.211Z,96.20
2022-09-28T01:37:30.395Z,95.90
2022-09-28T01:38:31.557Z,96.10
2022-09-28T01:39:30.792Z,95.95
2022-09-28T01:40:29.485Z,95.75
2022-09-28T01:41:31.586Z,95.20
2022-09-28T01:42:29.959Z,94.48
2022-09-28T01:43:33.118Z,93.60
2022-09-28T01:44:32.350Z,94.01
2022-09-28T01:45:32.546Z,94.01
2022-09-28T01:46:31.180Z,93.70
2022-09-28T01:47:33.333Z,93.19
2022-09-28T01:48:34.517Z,92.78
2022-09-28T01:49:33.734Z,92.61
2022-09-28T01:50:33.924Z,92.10
2022-09-28T01:51:34.626Z,93.23
2022-09-28T01:52:34.796Z,93.44
2022-09-28T01:53:34.310Z,93.44
2022-09-28T01:54:37.028Z,94.05
2022-09-28T01:55:35.738Z,93.54
2022-09-28T01:56:35.926Z,93.74
2022-09-28T01:57:36.087Z,93.85
2022-09-28T01:58:36.251Z,95.07
2022-09-28T01:59:38.402Z,95.07
2022-09-28T02:00:37.205Z,94.98
2022-09-28T02:01:37.330Z,94.98
2022-09-28T02:02:37.515Z,95.28
2022-09-28T02:03:37.702Z,95.18
2022-09-28T02:04:39.073Z,94.62
2022-09-28T02:05:38.304Z,94.15
2022-09-28T02:06:38.979Z,94.77
2022-09-28T02:07:39.136Z,94.87
2022-09-28T02:08:39.326Z,95.07
2022-09-28T02:09:39.486Z,94.98
2022-09-28T02:10:40.177Z,94.77
2022-09-28T02:11:40.383Z,94.87
2022-09-28T02:12:40.551Z,94.67
2022-09-28T02:13:40.756Z,94.71
2022-09-28T02:14:41.402Z,94.81
2022-09-28T02:15:41.676Z,95.02
2022-09-28T02:16:40.092Z,95.64
2022-09-28T02:17:40.270Z,95.94
2022-09-28T02:18:40.577Z,96.25
2022-09-28T02:19:42.742Z,96.00
2022-09-28T02:20:42.927Z,95.18
2022-09-28T02:21:42.462Z,95.18
2022-09-28T02:22:43.705Z,94.67
2022-09-28T02:23:41.995Z,94.05
2022-09-28T02:24:45.638Z,93.59
2022-09-28T02:25:45.817Z,93.38
2022-09-28T02:26:42.849Z,93.17
2022-09-28T02:27:43.154Z,92.86
2022-09-28T02:28:45.358Z,92.70
2022-09-28T02:29:45.540Z,93.01
2022-09-28T02:30:44.060Z,94.08
2022-09-28T02:31:46.308Z,94.90
2022-09-28T02:32:44.659Z,95.52
2022-09-28T02:33:47.010Z,95.72
2022-09-28T02:34:47.032Z,96.03
2022-09-28T02:35:45.546Z,96.48
2022-09-28T02:36:47.731Z,96.90
2022-09-28T02:37:46.110Z,96.90
2022-09-28T02:38:46.431Z,96.90
2022-09-28T02:39:46.752Z,96.90
2022-09-28T02:40:47.068Z,97.31
2022-09-28T02:41:49.222Z,97.16
2022-09-28T02:42:47.601Z,97.20
2022-09-28T02:43:47.902Z,97.52
2022-09-28T02:44:51.570Z,97.62
2022-09-28T02:45:50.401Z,97.62
2022-09-28T02:46:49.568Z,97.88
2022-09-28T02:47:49.051Z,97.99
2022-09-28T02:49:04.831Z,97.67
2022-09-28T02:49:52.528Z,97.78
2022-09-28T02:50:49.922Z,97.67
2022-09-28T02:51:52.102Z,97.88
2022-09-28T02:52:50.504Z,98.13
2022-09-28T02:53:51.730Z,98.03
2022-09-28T02:54:51.125Z,98.33
2022-09-28T02:55:51.515Z,98.24
2022-09-28T02:56:55.097Z,98.33
2022-09-28T02:57:51.994Z,98.33
2022-09-28T02:58:53.274Z,98.33
2022-09-28T02:59:54.505Z,98.24
2022-09-28T03:00:54.754Z,98.24
2022-09-28T03:01:53.238Z,98.13
2022-09-28T03:02:55.416Z,98.03
2022-09-28T03:03:54.803Z,97.92
2022-09-28T03:04:56.008Z,98.13
2022-09-28T03:05:56.180Z,98.13
2022-09-28T03:06:54.697Z,97.88
2022-09-28T03:07:58.331Z,97.82
2022-09-28T03:08:57.150Z,97.82
2022-09-28T03:09:57.245Z,97.72
2022-09-28T03:10:57.414Z,97.62
2022-09-28T03:11:56.033Z,97.82
2022-09-28T03:12:56.344Z,97.52
2022-09-28T03:13:59.998Z,97.72
2022-09-28T03:14:56.906Z,97.72
2022-09-28T03:15:57.260Z,97.62
2022-09-28T03:16:57.513Z,97.77
2022-09-28T03:17:57.826Z,97.92
2022-09-28T03:19:01.023Z,97.82
2022-09-28T03:19:58.397Z,97.92
2022-09-28T03:20:58.701Z,97.92
2022-09-28T03:21:59.011Z,97.62
2022-09-28T03:23:23.843Z,97.92
2022-09-28T03:24:02.676Z,97.62
2022-09-28T03:25:01.745Z,97.72
2022-09-28T03:26:01.937Z,97.41
2022-09-28T03:27:03.167Z,97.41
2022-09-28T03:28:02.356Z,97.52
2022-09-28T03:29:04.581Z,97.31
2022-09-28T03:30:03.313Z,97.20
2022-09-28T03:31:01.716Z,97.31
2022-09-28T03:32:03.973Z,97.20
2022-09-28T03:33:04.128Z,97.41
2022-09-28T03:34:05.293Z,97.41
2022-09-28T03:35:04.527Z,97.36
2022-09-28T03:36:05.219Z,97.77
2022-09-28T03:37:05.410Z,97.72
2022-09-28T03:38:05.608Z,97.56
2022-09-28T03:39:06.763Z,97.66
2022-09-28T03:40:06.494Z,97.97
2022-09-28T03:41:04.879Z,97.87
2022-09-28T03:42:05.188Z,98.18
2022-09-28T03:43:05.490Z,98.07
2022-09-28T03:44:06.809Z,98.07
2022-09-28T03:45:08.008Z,98.18
2022-09-28T03:46:06.352Z,98.38
2022-09-28T03:47:06.555Z,98.59
2022-09-28T03:48:08.713Z,98.38
2022-09-28T03:49:07.937Z,98.28
2022-09-28T03:50:09.371Z,98.49
2022-09-28T03:51:08.691Z,98.18
2022-09-28T03:52:08.037Z,98.38
2022-09-28T03:53:10.235Z,98.38
2022-09-28T03:54:11.889Z,98.69
2022-09-28T03:55:10.639Z,98.59
2022-09-28T03:56:10.816Z,98.38
2022-09-28T03:57:11.010Z,98.44
2022-09-28T03:58:11.674Z,98.44
2022-09-28T03:59:13.022Z,98.24
2022-09-28T04:00:12.176Z,98.65
2022-09-28T04:01:16.611Z,98.39
2022-09-28T04:02:12.002Z,98.39
2022-09-28T04:03:13.065Z,98.08
2022-09-28T04:04:12.386Z,97.78
2022-09-28T04:05:14.513Z,98.08
2022-09-28T04:06:12.171Z,98.19
2022-09-28T04:07:14.337Z,97.99
2022-09-28T04:08:14.486Z,98.19
2022-09-28T04:09:14.770Z,98.39
2022-09-28T04:10:14.881Z,98.60
2022-09-28T04:11:13.645Z,98.19
2022-09-28T04:12:15.805Z,98.60
2022-09-28T04:13:14.189Z,98.35
2022-09-28T04:14:15.531Z,98.08
2022-09-28T04:15:16.750Z,98.39
2022-09-28T04:16:15.058Z,98.39
2022-09-28T04:17:18.661Z,98.25
2022-09-28T04:18:15.581Z,98.55
2022-09-28T04:19:18.804Z,97.88
2022-09-28T04:20:17.972Z,98.29
2022-09-28T04:21:16.474Z,98.55
2022-09-28T04:22:16.790Z,98.35
2022-09-28T04:23:17.181Z,98.25
2022-09-28T04:24:18.402Z,98.25
2022-09-28T04:25:17.662Z,98.25
2022-09-28T04:26:19.872Z,97.94
2022-09-28T04:27:18.282Z,98.04
2022-09-28T04:28:18.596Z,98.50
2022-09-28T04:29:21.831Z,98.45
2022-09-28T04:30:21.004Z,98.45
2022-09-28T04:31:20.445Z,98.55
2022-09-28T04:32:19.692Z,98.14
2022-09-28T04:33:20.023Z,98.55
2022-09-28T04:34:21.874Z,98.04
2022-09-28T04:35:22.613Z,98.35
2022-09-28T04:36:20.889Z,98.45
2022-09-28T04:37:22.018Z,98.45
2022-09-28T04:38:35.852Z,98.25
2022-09-28T04:39:26.181Z,98.35
2022-09-28T04:40:23.978Z,98.35
2022-09-28T04:41:24.194Z,98.66
2022-09-28T04:42:22.702Z,98.55
2022-09-28T04:43:23.334Z,98.45
2022-09-28T04:44:24.332Z,98.86
2022-09-28T04:45:23.586Z,98.76
2022-09-28T04:46:25.766Z,98.96
2022-09-28T04:47:24.167Z,98.86
2022-09-28T04:48:24.480Z,98.96
2022-09-28T04:49:27.657Z,99.07
2022-09-28T04:50:25.086Z,98.71
2022-09-28T04:51:27.279Z,98.55
2022-09-28T04:52:25.655Z,98.55
2022-09-28T04:53:25.971Z,98.92
2022-09-28T04:54:29.135Z,98.51
2022-09-28T04:55:26.562Z,98.61
2022-09-28T04:56:26.882Z,98.41
2022-09-28T04:57:27.236Z,98.51
2022-09-28T04:58:27.555Z,98.30
2022-09-28T04:59:30.715Z,98.41
2022-09-28T05:00:29.942Z,98.61
2022-09-28T05:01:29.514Z,98.41
2022-09-28T05:02:30.701Z,98.10
2022-09-28T05:03:30.939Z,98.20
2022-09-28T05:04:32.028Z,98.30
2022-09-28T05:05:31.279Z,98.20
2022-09-28T05:06:31.463Z,98.30
2022-09-28T05:07:31.645Z,98.51
2022-09-28T05:08:30.416Z,98.71
2022-09-28T05:09:33.100Z,98.25
2022-09-28T05:10:32.003Z,98.25
2022-09-28T05:11:33.185Z,98.16
2022-09-28T05:12:33.366Z,97.95
2022-09-28T05:13:31.922Z,98.05
2022-09-28T05:14:35.589Z,97.99
2022-09-28T05:15:35.777Z,98.10
2022-09-28T05:16:34.533Z,98.10
2022-09-28T05:17:35.584Z,98.20
2022-09-28T05:18:34.944Z,98.30
2022-09-28T05:19:35.124Z,98.20
2022-09-28T05:20:35.808Z,98.61
2022-09-28T05:21:35.209Z,98.51
2022-09-28T05:22:37.918Z,98.51
2022-09-28T05:23:36.643Z,98.82
2022-09-28T05:24:36.814Z,98.61
2022-09-28T05:25:37.017Z,98.77
2022-09-28T05:26:35.687Z,98.46
2022-09-28T05:27:38.817Z,98.46
2022-09-28T05:28:36.258Z,98.30
2022-09-28T05:29:38.443Z,98.67
2022-09-28T05:30:38.723Z,98.25
2022-09-28T05:31:40.368Z,97.95
2022-09-28T05:32:38.272Z,98.16
2022-09-28T05:33:39.479Z,98.25
2022-09-28T05:34:39.666Z,98.36
2022-09-28T05:35:39.947Z,98.05
2022-09-28T05:36:40.069Z,97.85
2022-09-28T05:37:41.231Z,97.95
2022-09-28T05:38:40.447Z,97.95
2022-09-28T05:39:41.134Z,98.42
2022-09-28T05:40:41.369Z,97.80
2022-09-28T05:41:41.454Z,97.80
2022-09-28T05:42:40.871Z,97.24
2022-09-28T05:43:40.305Z,96.57
2022-09-28T05:44:42.485Z,97.19
2022-09-28T05:45:42.686Z,97.70
2022-09-28T05:46:42.850Z,97.39
2022-09-28T05:47:42.272Z,97.45
2022-09-28T05:48:43.652Z,96.83
2022-09-28T05:49:43.669Z,96.32
2022-09-28T05:50:43.839Z,96.73
2022-09-28T05:51:45.519Z,96.47
2022-09-28T05:52:43.621Z,96.78
2022-09-28T05:53:44.829Z,96.98
2022-09-28T05:54:45.022Z,97.29
2022-09-28T05:55:45.220Z,97.19
2022-09-28T05:56:45.397Z,97.60
2022-09-28T05:57:44.931Z,97.96
2022-09-28T05:58:44.227Z,96.63
2022-09-28T05:59:46.388Z,96.22
2022-09-28T06:00:44.723Z,97.04
2022-09-28T06:01:46.900Z,96.42
2022-09-28T06:02:48.133Z,96.42
2022-09-28T06:03:45.451Z,96.63
2022-09-28T06:04:47.633Z,96.58
2022-09-28T06:05:47.822Z,96.22
2022-09-28T06:06:48.012Z,96.88
2022-09-28T06:07:49.181Z,97.19
2022-09-28T06:08:48.469Z,97.19
2022-09-28T06:09:47.132Z,97.29
2022-09-28T06:10:49.472Z,97.91
2022-09-28T06:11:48.633Z,97.49
2022-09-28T06:12:51.302Z,97.96
2022-09-28T06:13:48.251Z,97.75
2022-09-28T06:14:51.892Z,97.24
2022-09-28T06:15:48.732Z,97.34
2022-09-28T06:16:51.026Z,97.14
2022-09-28T06:17:50.050Z,97.14
2022-09-28T06:18:51.448Z,97.14
2022-09-28T06:19:49.773Z,97.55
2022-09-28T06:20:51.069Z,97.55
2022-09-28T06:21:50.267Z,97.34
2022-09-28T06:22:53.891Z,97.65
2022-09-28T06:23:52.619Z,97.39
2022-09-28T06:24:51.078Z,97.70
2022-09-28T06:25:51.332Z,98.27
2022-09-28T06:26:51.577Z,97.96
2022-09-28T06:27:54.822Z,97.71
2022-09-28T06:28:53.979Z,97.50
2022-09-28T06:29:52.302Z,97.30
2022-09-28T06:30:52.726Z,96.89
2022-09-28T06:31:53.743Z,97.40
2022-09-28T06:32:54.034Z,97.14
2022-09-28T06:33:55.263Z,97.14
2022-09-28T06:34:56.339Z,97.55
2022-09-28T06:35:53.869Z,97.75
2022-09-28T06:36:54.160Z,97.34
2022-09-28T06:37:57.293Z,97.65
2022-09-28T06:38:54.646Z,97.96
2022-09-28T06:39:56.811Z,97.86
2022-09-28T06:40:55.172Z,97.65
2022-09-28T06:41:55.465Z,97.86
2022-09-28T06:42:59.107Z,97.75
2022-09-28T06:43:57.837Z,97.55
2022-09-28T06:44:56.262Z,97.86
2022-09-28T06:45:57.381Z,97.45
2022-09-28T06:46:57.716Z,97.86
2022-09-28T06:48:00.425Z,97.75
2022-09-28T06:48:59.156Z,97.60
2022-09-28T06:49:57.480Z,98.00
2022-09-28T06:50:57.823Z,98.32
2022-09-28T06:52:00.005Z,98.52
2022-09-28T06:52:59.457Z,98.21
2022-09-28T06:54:00.678Z,98.68
2022-09-28T06:54:58.987Z,97.96
2022-09-28T06:55:59.225Z,97.70
2022-09-28T06:57:01.439Z,97.80
2022-09-28T06:58:00.725Z,97.86
2022-09-28T06:59:00.034Z,97.55
2022-09-28T07:00:01.120Z,97.96
2022-09-28T07:01:02.561Z,97.96
2022-09-28T07:02:02.711Z,97.75
2022-09-28T07:03:02.109Z,98.07
2022-09-28T07:04:01.393Z,97.86
2022-09-28T07:05:01.654Z,97.45
2022-09-28T07:06:03.823Z,97.45
2022-09-28T07:07:02.137Z,97.45
2022-09-28T07:08:05.779Z,97.40
2022-09-28T07:09:20.043Z,97.24
2022-09-28T07:10:03.878Z,97.30
2022-09-28T07:11:03.199Z,97.91
2022-09-28T07:12:03.430Z,97.40
2022-09-28T07:13:04.964Z,97.66
2022-09-28T07:14:05.896Z,96.95
2022-09-28T07:15:06.089Z,96.84
2022-09-28T07:16:04.690Z,96.17
2022-09-28T07:17:13.610Z,97.09
2022-09-28T07:18:08.155Z,97.30
2022-09-28T07:19:05.461Z,97.09
2022-09-28T07:20:17.125Z,97.25
2022-09-28T07:21:07.409Z,96.99
2022-09-28T07:22:06.240Z,97.09
2022-09-28T07:23:18.349Z,97.09
2022-09-28T07:24:07.759Z,96.79
2022-09-28T07:25:08.959Z,96.89
2022-09-28T07:26:09.065Z,97.09
2022-09-28T07:27:09.487Z,97.20
2022-09-28T07:28:09.672Z,96.94
2022-09-28T07:29:09.872Z,97.20
2022-09-28T07:30:10.522Z,97.30
2022-09-28T07:31:12.220Z,97.34
2022-09-28T07:32:10.919Z,97.96
2022-09-28T07:33:12.100Z,98.02
2022-09-28T07:34:11.387Z,97.50
2022-09-28T07:35:10.099Z,97.40
2022-09-28T07:36:10.346Z,97.50
2022-09-28T07:37:10.591Z,97.71
2022-09-28T07:38:12.788Z,97.61
2022-09-28T07:39:12.979Z,97.81
2022-09-28T07:40:13.146Z,97.77
2022-09-28T07:41:14.305Z,97.56
2022-09-28T07:42:13.952Z,97.56
2022-09-28T07:43:14.146Z,97.52
2022-09-28T07:44:14.429Z,97.05
2022-09-28T07:45:14.544Z,97.77
2022-09-28T07:46:15.080Z,97.41
2022-09-28T07:47:14.922Z,97.47
2022-09-28T07:48:15.647Z,97.00
2022-09-28T07:49:15.841Z,96.70
2022-09-28T07:50:16.063Z,97.36
2022-09-28T07:51:16.180Z,97.61
2022-09-28T07:52:16.384Z,97.50
2022-09-28T07:53:16.105Z,98.12
2022-09-28T07:54:16.895Z,97.97
2022-09-28T07:55:15.723Z,98.18
2022-09-28T07:56:15.955Z,97.97
2022-09-28T07:57:16.197Z,98.07
2022-09-28T07:58:18.376Z,98.07
2022-09-28T07:59:20.018Z,97.61
2022-09-28T08:00:16.982Z,98.22
2022-09-28T08:01:17.273Z,97.97
2022-09-28T08:02:18.527Z,97.77
2022-09-28T08:03:19.688Z,98.18
2022-09-28T08:04:18.103Z,98.24
2022-09-28T08:05:20.291Z,97.98
2022-09-28T08:06:18.595Z,97.67
2022-09-28T08:07:23.722Z,96.96
2022-09-28T08:08:21.035Z,96.70
2022-09-28T08:09:21.218Z,97.27
2022-09-28T08:10:21.401Z,96.71
2022-09-28T08:11:22.083Z,96.25
2022-09-28T08:12:22.369Z,96.86
2022-09-28T08:13:26.712Z,96.71
2022-09-28T08:14:23.646Z,96.34
2022-09-28T08:15:23.336Z,96.45
2022-09-28T08:16:23.618Z,96.86
2022-09-28T08:17:23.942Z,96.91
2022-09-28T08:18:24.125Z,97.37
2022-09-28T08:19:24.127Z,97.63
2022-09-28T08:20:22.877Z,96.71
2022-09-28T08:21:26.497Z,96.75
2022-09-28T08:22:24.298Z,97.12
2022-09-28T08:23:25.547Z,96.96
2022-09-28T08:24:25.727Z,96.96
2022-09-28T08:25:25.406Z,97.27
2022-09-28T08:26:24.466Z,96.96
2022-09-28T08:27:28.177Z,96.92
2022-09-28T08:28:25.006Z,96.96
2022-09-28T08:29:27.197Z,97.02
2022-09-28T08:30:25.560Z,96.61
2022-09-28T08:31:27.677Z,96.97
2022-09-28T08:32:26.136Z,96.97
2022-09-28T08:33:26.374Z,96.15
2022-09-28T08:34:28.556Z,95.75
2022-09-28T08:35:26.868Z,96.30
2022-09-28T08:36:29.056Z,96.20
2022-09-28T08:37:27.404Z,96.20
2022-09-28T08:38:27.663Z,96.77
2022-09-28T08:39:27.927Z,97.08
2022-09-28T08:40:30.146Z,96.46
2022-09-28T08:41:30.267Z,96.42
2022-09-28T08:42:29.737Z,96.05
2022-09-28T08:43:29.027Z,96.67
2022-09-28T08:44:29.274Z,96.97
2022-09-28T08:45:29.507Z,96.41
2022-09-28T08:46:29.798Z,96.92
2022-09-28T08:47:33.301Z,96.72
2022-09-28T08:48:30.240Z,95.50
2022-09-28T08:49:30.478Z,96.01
2022-09-28T08:50:30.716Z,96.51
2022-09-28T08:51:33.197Z,95.95
2022-09-28T08:52:32.096Z,95.95
2022-09-28T08:53:31.523Z,96.26
2022-09-28T08:54:31.751Z,96.46
2022-09-28T08:55:31.995Z,96.00
2022-09-28T08:56:32.228Z,96.51
2022-09-28T08:57:35.395Z,96.67
2022-09-28T08:58:34.626Z,96.42
2022-09-28T08:59:33.067Z,95.80
2022-09-28T09:00:33.302Z,95.60
2022-09-28T09:01:33.581Z,95.50
2022-09-28T09:02:35.881Z,95.80
2022-09-28T09:03:35.986Z,95.39
2022-09-28T09:04:34.298Z,95.29
2022-09-28T09:05:35.464Z,94.98
2022-09-28T09:06:35.837Z,94.94
2022-09-28T09:07:38.543Z,94.58
2022-09-28T09:08:35.375Z,94.64
2022-09-28T09:09:35.609Z,94.64
2022-09-28T09:10:35.843Z,94.70
2022-09-28T09:11:37.089Z,94.90
2022-09-28T09:12:38.469Z,94.14
2022-09-28T09:13:36.652Z,93.47
2022-09-28T09:14:38.841Z,93.57
2022-09-28T09:15:37.157Z,94.49
2022-09-28T09:16:37.420Z,94.04
2022-09-28T09:17:39.484Z,93.22
2022-09-28T09:18:37.904Z,94.08
2022-09-28T09:19:40.093Z,93.93
2022-09-28T09:20:38.396Z,93.38
2022-09-28T09:21:39.599Z,93.44
2022-09-28T09:22:40.937Z,92.68
2022-09-28T09:23:39.289Z,91.72
2022-09-28T09:24:39.527Z,91.11
2022-09-28T09:25:39.767Z,91.52
2022-09-28T09:26:40.001Z,90.24
2022-09-28T09:27:43.686Z,91.46
2022-09-28T09:28:42.441Z,91.01
2022-09-28T09:29:40.743Z,90.03
2022-09-28T09:30:41.028Z,90.20
2022-09-28T09:31:42.226Z,88.67
2022-09-28T09:32:44.878Z,89.54
2022-09-28T09:33:43.626Z,87.99
2022-09-28T09:34:42.063Z,86.37
2022-09-28T09:35:42.326Z,86.16
2022-09-28T09:36:42.554Z,86.16
2022-09-28T09:37:43.831Z,86.13
2022-09-28T09:38:45.055Z,84.66
2022-09-28T09:39:45.246Z,84.01
2022-09-28T09:40:43.701Z,83.89
2022-09-28T09:41:43.904Z,85.49
2022-09-28T09:42:45.109Z,86.15
2022-09-28T09:43:46.335Z,86.69
2022-09-28T09:44:44.646Z,87.06
2022-09-28T09:45:44.904Z,87.34
2022-09-28T09:46:45.126Z,84.48
2022-09-28T09:47:48.810Z,82.90
2022-09-28T09:48:47.547Z,80.47
2022-09-28T09:49:45.887Z,78.45
2022-09-28T09:50:46.181Z,78.05
2022-09-28T09:51:46.439Z,78.55
2022-09-28T09:52:50.091Z,77.97
2022-09-28T09:53:48.829Z,76.12
2022-09-28T09:54:48.982Z,75.89
2022-09-28T09:55:49.153Z,76.19
2022-09-28T09:56:49.315Z,78.15
2022-09-28T09:57:51.472Z,78.75
2022-09-28T09:58:50.207Z,77.70
2022-09-28T09:59:50.366Z,73.25
2022-09-28T10:00:50.559Z,71.26
2022-09-28T10:01:50.743Z,71.17
2022-09-28T10:02:52.294Z,69.99
2022-09-28T10:03:51.642Z,71.47
2022-09-28T10:04:51.829Z,74.37
2022-09-28T10:05:50.271Z,74.10
2022-09-28T10:06:50.512Z,73.69
2022-09-28T10:07:51.776Z,75.64
2022-09-28T10:08:53.003Z,73.38
2022-09-28T10:09:53.174Z,70.56
2022-09-28T10:10:51.602Z,74.40
2022-09-28T10:11:52.842Z,73.89
2022-09-28T10:12:54.100Z,72.58
2022-09-28T10:13:54.241Z,69.69
2022-09-28T10:14:53.822Z,70.62
2022-09-28T10:15:52.903Z,68.11
2022-09-28T10:16:53.175Z,67.24
2022-09-28T10:17:55.387Z,70.16
2022-09-28T10:18:55.535Z,67.88
2022-09-28T10:19:55.718Z,68.71
2022-09-28T10:20:55.905Z,69.09
2022-09-28T10:21:55.574Z,71.40
2022-09-28T10:22:58.258Z,73.66
2022-09-28T10:23:56.986Z,73.90
2022-09-28T10:24:57.186Z,72.64
2022-09-28T10:25:57.367Z,69.15
2022-09-28T10:26:58.067Z,70.56
2022-09-28T10:27:58.289Z,66.84
2022-09-28T10:28:58.451Z,65.67
2022-09-28T10:29:59.134Z,63.22
2022-09-28T10:30:59.387Z,64.19
2022-09-28T10:31:59.516Z,66.91
2022-09-28T10:32:59.745Z,64.19
2022-09-28T10:33:59.928Z,65.47
2022-09-28T10:35:00.620Z,63.65
2022-09-28T10:35:58.966Z,64.69
2022-09-28T10:37:01.202Z,68.48
2022-09-28T10:38:02.281Z,68.85
2022-09-28T10:39:01.511Z,67.27
2022-09-28T10:40:02.200Z,66.57
2022-09-28T10:41:00.548Z,63.87
2022-09-28T10:42:02.690Z,61.25
2022-09-28T10:43:02.156Z,61.50
2022-09-28T10:44:04.845Z,61.17
2022-09-28T10:45:01.801Z,60.75
2022-09-28T10:46:05.550Z,61.43
2022-09-28T10:47:02.364Z,61.60
2022-09-28T10:48:03.574Z,59.29
2022-09-28T10:49:02.873Z,59.44
2022-09-28T10:50:05.051Z,59.05
2022-09-28T10:51:05.255Z,55.49
2022-09-28T10:52:03.689Z,57.33
2022-09-28T10:53:05.882Z,59.22
2022-09-28T10:54:04.196Z,59.55
2022-09-28T10:55:06.384Z,60.60
2022-09-28T10:56:04.694Z,62.08
2022-09-28T10:57:10.320Z,55.60
2022-09-28T10:58:08.056Z,57.71
2022-09-28T10:59:05.496Z,60.53
2022-09-28T11:00:07.676Z,63.42
2022-09-28T11:01:06.019Z,63.11
2022-09-28T11:02:08.220Z,63.92
2022-09-28T11:03:08.349Z,62.78
2022-09-28T11:04:06.778Z,63.28
2022-09-28T11:05:07.029Z,60.71
2022-09-28T11:06:09.202Z,60.86
2022-09-28T11:07:07.507Z,57.43
2022-09-28T11:08:09.701Z,53.69
2022-09-28T11:09:10.861Z,52.80
2022-09-28T11:10:08.273Z,52.42
2022-09-28T11:11:11.923Z,52.92
2022-09-28T11:12:08.754Z,51.87
2022-09-28T11:13:11.861Z,50.79
2022-09-28T11:14:09.294Z,51.19
2022-09-28T11:15:10.442Z,53.47
2022-09-28T11:16:11.804Z,54.87
2022-09-28T11:17:11.969Z,52.94
2022-09-28T11:18:10.409Z,52.22
2022-09-28T11:19:12.599Z,51.82
2022-09-28T11:20:10.921Z,49.76
2022-09-28T11:21:13.135Z,46.98
2022-09-28T11:22:13.681Z,52.64
2022-09-28T11:23:13.622Z,54.88
2022-09-28T11:24:18.170Z,52.01
2022-09-28T11:25:13.253Z,54.58
2022-09-28T11:26:16.192Z,55.47
2022-09-28T11:27:13.857Z,54.90
2022-09-28T11:28:14.986Z,54.77
2022-09-28T11:29:14.260Z,53.80
2022-09-28T11:30:13.541Z,51.99
2022-09-28T11:31:13.814Z,54.62
2022-09-28T11:32:16.021Z,54.72
2022-09-28T11:33:14.345Z,57.46
2022-09-28T11:34:14.635Z,57.28
2022-09-28T11:35:14.837Z,58.67
2022-09-28T11:36:15.087Z,58.94
2022-09-28T11:37:15.315Z,59.99
2022-09-28T11:38:16.498Z,59.57
2022-09-28T11:39:15.826Z,59.20
2022-09-28T11:40:16.209Z,60.75
2022-09-28T11:41:16.319Z,60.15
2022-09-28T11:42:18.508Z,60.41
2022-09-28T11:43:18.689Z,58.87
2022-09-28T11:44:17.226Z,58.16
2022-09-28T11:45:17.479Z,58.12
2022-09-28T11:46:17.734Z,57.71
2022-09-28T11:47:17.976Z,59.02
2022-09-28T11:48:20.148Z,59.20
2022-09-28T11:49:18.467Z,59.80
2022-09-28T11:50:24.153Z,59.30
2022-09-28T11:51:18.978Z,59.09
2022-09-28T11:52:19.319Z,58.72
2022-09-28T11:53:19.551Z,60.94
2022-09-28T11:54:21.731Z,61.80
2022-09-28T11:55:21.916Z,62.04
2022-09-28T11:56:22.065Z,61.53
2022-09-28T11:57:22.249Z,62.44
2022-09-28T11:58:22.946Z,63.55
2022-09-28T11:59:21.279Z,62.34
2022-09-28T12:00:23.469Z,63.05
2022-09-28T12:01:21.775Z,63.25
2022-09-28T12:02:22.148Z,63.05
2022-09-28T12:03:24.272Z,61.91
2022-09-28T12:04:22.473Z,62.31
2022-09-28T12:05:24.656Z,63.22
2022-09-28T12:06:23.076Z,61.77
2022-09-28T12:07:23.370Z,61.75
2022-09-28T12:08:23.571Z,60.81
2022-09-28T12:09:25.777Z,62.02
2022-09-28T12:10:25.945Z,60.16
2022-09-28T12:11:26.105Z,61.95
2022-09-28T12:12:26.384Z,62.08
2022-09-28T12:13:26.487Z,63.59
2022-09-28T12:14:27.184Z,64.50
2022-09-28T12:15:27.363Z,66.55
2022-09-28T12:16:53.539Z,65.84
2022-09-28T12:17:27.095Z,66.05
2022-09-28T12:18:28.157Z,66.35
2022-09-28T12:19:28.344Z,66.15
2022-09-28T12:20:28.530Z,66.72
2022-09-28T12:21:29.215Z,68.47
2022-09-28T12:22:27.570Z,68.77
2022-09-28T12:23:29.748Z,69.04
2022-09-28T12:24:28.045Z,68.63
2022-09-28T12:25:30.247Z,69.21
2022-09-28T12:26:32.540Z,68.57
2022-09-28T12:27:30.913Z,68.04
2022-09-28T12:28:31.086Z,68.64
2022-09-28T12:29:31.285Z,67.43
2022-09-28T12:30:29.824Z,67.93
2022-09-28T12:31:32.008Z,67.46
2022-09-28T12:32:32.196Z,67.09
2022-09-28T12:33:32.396Z,66.69
2022-09-28T12:34:32.566Z,67.09
2022-09-28T12:35:32.932Z,67.46
2022-09-28T12:36:33.093Z,66.55
2022-09-28T12:37:32.794Z,66.22
2022-09-28T12:38:32.974Z,65.44
2022-09-28T12:39:53.419Z,66.59
2022-09-28T12:40:33.765Z,67.63
2022-09-28T12:41:34.921Z,66.25
2022-09-28T12:42:35.105Z,64.10
2022-09-28T12:43:35.289Z,68.67
2022-09-28T12:44:35.465Z,69.45
2022-09-28T12:45:42.873Z,69.88
2022-09-28T12:46:38.456Z,72.82
2022-09-28T12:47:34.803Z,76.10
2022-09-28T12:48:35.037Z,75.59
2022-09-28T12:50:33.357Z,74.62
2022-09-28T12:50:39.384Z,76.34
2022-09-28T12:51:37.826Z,73.19
2022-09-28T12:52:37.842Z,74.44
2022-09-28T12:53:36.470Z,74.85
2022-09-28T12:54:36.704Z,74.14
2022-09-28T12:55:38.903Z,74.10